sensor_id;sensor_type;location;lat;lon;timestamp;temperature;humidity
11035;DHT22;5571;48.110;-1.706;2023-02-01T00:00:23;8.90;99.90
11035;DHT22;5571;48.110;-1.706;2023-02-01T00:02:49;8.90;99.90
11035;DHT22;5571;48.110;-1.706;2023-02-01T00:05:14;8.90;99.90
11035;DHT22;5571;48.110;-1.706;2023-02-01T00:07:40;8.80;99.90
11035;DHT22;5571;48.110;-1.706;2023-02-01T00:10:06;8.90;99.90
11035;DHT22;5571;48.110;-1.706;2023-02-01T00:12:32;8.90;99.90
11035;DHT22;5571;48.110;-1.706;2023-02-01T00:14:58;8.80;99.90
11035;DHT22;5571;48.110;-1.706;2023-02-01T00:17:24;8.90;99.90
11035;DHT22;5571;48.110;-1.706;2023-02-01T00:19:50;8.80;99.90
11035;DHT22;5571;48.110;-1.706;2023-02-01T00:22:16;8.80;99.90
11035;DHT22;5571;48.110;-1.706;2023-02-01T00:24:41;8.90;99.90
11035;DHT22;5571;48.110;-1.706;2023-02-01T00:27:07;8.90;99.90
11035;DHT22;5571;48.110;-1.706;2023-02-01T00:29:33;8.80;99.90
11035;DHT22;5571;48.110;-1.706;2023-02-01T00:31:58;8.80;99.90
11035;DHT22;5571;48.110;-1.706;2023-02-01T00:34:24;8.90;99.90
11035;DHT22;5571;48.110;-1.706;2023-02-01T00:36:49;8.80;99.90
11035;DHT22;5571;48.110;-1.706;2023-02-01T00:39:16;8.80;99.90
11035;DHT22;5571;48.110;-1.706;2023-02-01T00:41:41;8.80;99.90
11035;DHT22;5571;48.110;-1.706;2023-02-01T00:44:07;8.80;99.90
11035;DHT22;5571;48.110;-1.706;2023-02-01T00:46:33;8.80;99.90
11035;DHT22;5571;48.110;-1.706;2023-02-01T00:48:58;8.80;99.90
11035;DHT22;5571;48.110;-1.706;2023-02-01T00:51:26;8.80;99.90
11035;DHT22;5571;48.110;-1.706;2023-02-01T00:58:44;8.70;99.90
11035;DHT22;5571;48.110;-1.706;2023-02-01T01:01:13;8.70;99.90
11035;DHT22;5571;48.110;-1.706;2023-02-01T01:03:41;8.70;99.90
11035;DHT22;5571;48.110;-1.706;2023-02-01T01:06:12;8.70;99.90
11035;DHT22;5571;48.110;-1.706;2023-02-01T01:08:40;8.70;99.90
11035;DHT22;5571;48.110;-1.706;2023-02-01T01:11:14;8.70;99.90
11035;DHT22;5571;48.110;-1.706;2023-02-01T01:13:41;8.70;99.90
11035;DHT22;5571;48.110;-1.706;2023-02-01T01:16:08;8.70;99.90
11035;DHT22;5571;48.110;-1.706;2023-02-01T01:18:35;8.70;99.90
11035;DHT22;5571;48.110;-1.706;2023-02-01T01:21:02;8.70;99.90
11035;DHT22;5571;48.110;-1.706;2023-02-01T01:23:29;8.70;99.90
11035;DHT22;5571;48.110;-1.706;2023-02-01T01:25:54;8.70;99.90
11035;DHT22;5571;48.110;-1.706;2023-02-01T01:28:20;8.70;99.90
11035;DHT22;5571;48.110;-1.706;2023-02-01T01:30:46;8.70;99.90
11035;DHT22;5571;48.110;-1.706;2023-02-01T01:33:11;8.60;99.90
11035;DHT22;5571;48.110;-1.706;2023-02-01T01:35:37;8.60;99.90
11035;DHT22;5571;48.110;-1.706;2023-02-01T01:38:03;8.60;99.90
11035;DHT22;5571;48.110;-1.706;2023-02-01T01:40:29;8.60;99.90
11035;DHT22;5571;48.110;-1.706;2023-02-01T01:42:56;8.60;99.90
11035;DHT22;5571;48.110;-1.706;2023-02-01T01:45:30;8.60;99.90
11035;DHT22;5571;48.110;-1.706;2023-02-01T01:48:04;8.70;99.90
11035;DHT22;5571;48.110;-1.706;2023-02-01T01:50:38;8.60;99.90
11035;DHT22;5571;48.110;-1.706;2023-02-01T01:53:08;8.60;99.90
11035;DHT22;5571;48.110;-1.706;2023-02-01T01:55:39;8.60;99.90
11035;DHT22;5571;48.110;-1.706;2023-02-01T01:58:11;8.60;99.90
11035;DHT22;5571;48.110;-1.706;2023-02-01T02:00:37;8.60;99.90
11035;DHT22;5571;48.110;-1.706;2023-02-01T02:03:10;8.50;99.90
11035;DHT22;5571;48.110;-1.706;2023-02-01T02:05:37;8.60;99.90
11035;DHT22;5571;48.110;-1.706;2023-02-01T02:08:03;8.50;99.90
11035;DHT22;5571;48.110;-1.706;2023-02-01T02:10:29;8.50;99.90
11035;DHT22;5571;48.110;-1.706;2023-02-01T02:13:16;8.60;99.90
11035;DHT22;5571;48.110;-1.706;2023-02-01T02:15:53;8.60;99.90
11035;DHT22;5571;48.110;-1.706;2023-02-01T02:18:51;8.60;99.90
11035;DHT22;5571;48.110;-1.706;2023-02-01T02:21:45;8.60;99.90
11035;DHT22;5571;48.110;-1.706;2023-02-01T02:27:05;8.60;99.90
11035;DHT22;5571;48.110;-1.706;2023-02-01T02:29:54;8.60;99.90
11035;DHT22;5571;48.110;-1.706;2023-02-01T02:40:36;8.50;99.90
11035;DHT22;5571;48.110;-1.706;2023-02-01T02:43:26;8.60;99.90
11035;DHT22;5571;48.110;-1.706;2023-02-01T02:46:21;8.60;99.90
11035;DHT22;5571;48.110;-1.706;2023-02-01T02:49:20;8.60;99.90
11035;DHT22;5571;48.110;-1.706;2023-02-01T02:55:08;8.60;99.90
11035;DHT22;5571;48.110;-1.706;2023-02-01T02:57:37;8.60;99.90
11035;DHT22;5571;48.110;-1.706;2023-02-01T03:00:27;8.60;99.90
11035;DHT22;5571;48.110;-1.706;2023-02-01T03:03:12;8.60;99.90
11035;DHT22;5571;48.110;-1.706;2023-02-01T03:05:56;8.60;99.90
11035;DHT22;5571;48.110;-1.706;2023-02-01T03:08:24;8.60;99.90
11035;DHT22;5571;48.110;-1.706;2023-02-01T03:16:47;8.60;99.90
11035;DHT22;5571;48.110;-1.706;2023-02-01T03:19:03;8.60;99.90
11035;DHT22;5571;48.110;-1.706;2023-02-01T03:21:43;8.60;99.90
11035;DHT22;5571;48.110;-1.706;2023-02-01T03:24:29;8.60;99.90
11035;DHT22;5571;48.110;-1.706;2023-02-01T03:29:44;8.50;99.90
11035;DHT22;5571;48.110;-1.706;2023-02-01T03:32:11;8.50;99.90
11035;DHT22;5571;48.110;-1.706;2023-02-01T03:34:37;8.50;99.90
11035;DHT22;5571;48.110;-1.706;2023-02-01T03:37:06;8.50;99.90
11035;DHT22;5571;48.110;-1.706;2023-02-01T03:39:48;8.50;99.90
11035;DHT22;5571;48.110;-1.706;2023-02-01T03:42:42;8.50;99.90
11035;DHT22;5571;48.110;-1.706;2023-02-01T03:45:40;8.50;99.90
11035;DHT22;5571;48.110;-1.706;2023-02-01T03:48:09;8.50;99.90
11035;DHT22;5571;48.110;-1.706;2023-02-01T03:50:38;8.50;99.90
11035;DHT22;5571;48.110;-1.706;2023-02-01T03:53:11;8.50;99.90
11035;DHT22;5571;48.110;-1.706;2023-02-01T03:55:40;8.50;99.90
11035;DHT22;5571;48.110;-1.706;2023-02-01T04:00:37;8.50;99.90
11035;DHT22;5571;48.110;-1.706;2023-02-01T04:03:07;8.50;99.90
11035;DHT22;5571;48.110;-1.706;2023-02-01T04:05:33;8.50;99.90
11035;DHT22;5571;48.110;-1.706;2023-02-01T04:07:59;8.50;99.90
11035;DHT22;5571;48.110;-1.706;2023-02-01T04:10:25;8.50;99.90
11035;DHT22;5571;48.110;-1.706;2023-02-01T04:12:51;8.50;99.90
11035;DHT22;5571;48.110;-1.706;2023-02-01T04:15:17;8.40;99.90
11035;DHT22;5571;48.110;-1.706;2023-02-01T04:17:42;8.40;99.90
11035;DHT22;5571;48.110;-1.706;2023-02-01T04:20:09;8.40;99.90
11035;DHT22;5571;48.110;-1.706;2023-02-01T04:22:34;8.40;99.90
11035;DHT22;5571;48.110;-1.706;2023-02-01T04:25:00;8.40;99.90
11035;DHT22;5571;48.110;-1.706;2023-02-01T04:27:26;8.40;99.90
11035;DHT22;5571;48.110;-1.706;2023-02-01T04:29:52;8.40;99.90
11035;DHT22;5571;48.110;-1.706;2023-02-01T04:32:18;8.40;99.90
11035;DHT22;5571;48.110;-1.706;2023-02-01T04:34:45;8.40;99.90
11035;DHT22;5571;48.110;-1.706;2023-02-01T04:37:10;8.40;99.90
11035;DHT22;5571;48.110;-1.706;2023-02-01T04:39:36;8.40;99.90
11035;DHT22;5571;48.110;-1.706;2023-02-01T04:42:02;8.40;99.90
11035;DHT22;5571;48.110;-1.706;2023-02-01T04:44:27;8.50;99.90
11035;DHT22;5571;48.110;-1.706;2023-02-01T04:46:53;8.50;99.90
11035;DHT22;5571;48.110;-1.706;2023-02-01T04:49:19;8.40;99.90
11035;DHT22;5571;48.110;-1.706;2023-02-01T04:51:46;8.40;99.90
11035;DHT22;5571;48.110;-1.706;2023-02-01T04:54:12;8.40;99.90
11035;DHT22;5571;48.110;-1.706;2023-02-01T04:56:38;8.40;99.90
11035;DHT22;5571;48.110;-1.706;2023-02-01T04:59:04;8.40;99.90
11035;DHT22;5571;48.110;-1.706;2023-02-01T05:01:30;8.40;99.90
11035;DHT22;5571;48.110;-1.706;2023-02-01T05:03:56;8.40;99.90
11035;DHT22;5571;48.110;-1.706;2023-02-01T05:06:22;8.40;99.90
11035;DHT22;5571;48.110;-1.706;2023-02-01T05:08:48;8.40;99.90
11035;DHT22;5571;48.110;-1.706;2023-02-01T05:11:13;8.40;99.90
11035;DHT22;5571;48.110;-1.706;2023-02-01T05:13:59;8.40;99.90
11035;DHT22;5571;48.110;-1.706;2023-02-01T05:16:25;8.50;99.90
11035;DHT22;5571;48.110;-1.706;2023-02-01T05:18:51;8.50;99.90
11035;DHT22;5571;48.110;-1.706;2023-02-01T05:21:17;8.40;99.90
11035;DHT22;5571;48.110;-1.706;2023-02-01T05:23:43;8.50;99.90
11035;DHT22;5571;48.110;-1.706;2023-02-01T05:26:27;8.40;99.90
11035;DHT22;5571;48.110;-1.706;2023-02-01T05:28:52;8.50;99.90
11035;DHT22;5571;48.110;-1.706;2023-02-01T05:31:18;8.50;99.90
11035;DHT22;5571;48.110;-1.706;2023-02-01T05:33:44;8.40;99.90
11035;DHT22;5571;48.110;-1.706;2023-02-01T05:36:09;8.40;99.90
11035;DHT22;5571;48.110;-1.706;2023-02-01T05:38:35;8.40;99.90
11035;DHT22;5571;48.110;-1.706;2023-02-01T05:41:00;8.40;99.90
11035;DHT22;5571;48.110;-1.706;2023-02-01T05:43:26;8.40;99.90
11035;DHT22;5571;48.110;-1.706;2023-02-01T05:45:52;8.40;99.90
11035;DHT22;5571;48.110;-1.706;2023-02-01T05:48:18;8.40;99.90
11035;DHT22;5571;48.110;-1.706;2023-02-01T05:50:44;8.40;99.90
11035;DHT22;5571;48.110;-1.706;2023-02-01T05:53:10;8.40;99.90
11035;DHT22;5571;48.110;-1.706;2023-02-01T05:55:36;8.40;99.90
11035;DHT22;5571;48.110;-1.706;2023-02-01T05:58:02;8.40;99.90
11035;DHT22;5571;48.110;-1.706;2023-02-01T06:00:28;8.40;99.90
11035;DHT22;5571;48.110;-1.706;2023-02-01T06:02:53;8.40;99.90
11035;DHT22;5571;48.110;-1.706;2023-02-01T06:05:19;8.40;99.90
11035;DHT22;5571;48.110;-1.706;2023-02-01T06:07:45;8.40;99.90
11035;DHT22;5571;48.110;-1.706;2023-02-01T06:10:10;8.40;99.90
11035;DHT22;5571;48.110;-1.706;2023-02-01T06:12:36;8.40;99.90
11035;DHT22;5571;48.110;-1.706;2023-02-01T06:15:02;8.40;99.90
11035;DHT22;5571;48.110;-1.706;2023-02-01T06:17:27;8.40;99.90
11035;DHT22;5571;48.110;-1.706;2023-02-01T06:19:53;8.40;99.90
11035;DHT22;5571;48.110;-1.706;2023-02-01T06:22:19;8.40;99.90
11035;DHT22;5571;48.110;-1.706;2023-02-01T06:24:44;8.40;99.90
11035;DHT22;5571;48.110;-1.706;2023-02-01T06:27:10;8.40;99.90
11035;DHT22;5571;48.110;-1.706;2023-02-01T06:29:36;8.40;99.90
11035;DHT22;5571;48.110;-1.706;2023-02-01T06:32:02;8.40;99.90
11035;DHT22;5571;48.110;-1.706;2023-02-01T06:34:28;8.40;99.90
11035;DHT22;5571;48.110;-1.706;2023-02-01T06:36:54;8.40;99.90
11035;DHT22;5571;48.110;-1.706;2023-02-01T06:39:20;8.40;99.90
11035;DHT22;5571;48.110;-1.706;2023-02-01T06:41:50;8.40;99.90
11035;DHT22;5571;48.110;-1.706;2023-02-01T06:44:16;8.40;99.90
11035;DHT22;5571;48.110;-1.706;2023-02-01T06:46:42;8.40;99.90
11035;DHT22;5571;48.110;-1.706;2023-02-01T06:49:08;8.40;99.90
11035;DHT22;5571;48.110;-1.706;2023-02-01T06:51:34;8.40;99.90
11035;DHT22;5571;48.110;-1.706;2023-02-01T06:54:00;8.40;99.90
11035;DHT22;5571;48.110;-1.706;2023-02-01T06:56:26;8.40;99.90
11035;DHT22;5571;48.110;-1.706;2023-02-01T06:58:52;8.40;99.90
11035;DHT22;5571;48.110;-1.706;2023-02-01T07:01:19;8.30;99.90
11035;DHT22;5571;48.110;-1.706;2023-02-01T07:03:49;8.40;99.90
11035;DHT22;5571;48.110;-1.706;2023-02-01T07:06:16;8.40;99.90
11035;DHT22;5571;48.110;-1.706;2023-02-01T07:08:42;8.40;99.90
11035;DHT22;5571;48.110;-1.706;2023-02-01T07:11:10;8.40;99.90
11035;DHT22;5571;48.110;-1.706;2023-02-01T07:13:36;8.40;99.90
11035;DHT22;5571;48.110;-1.706;2023-02-01T07:16:04;8.40;99.90
11035;DHT22;5571;48.110;-1.706;2023-02-01T07:18:30;8.50;99.90
11035;DHT22;5571;48.110;-1.706;2023-02-01T07:20:57;8.40;99.90
11035;DHT22;5571;48.110;-1.706;2023-02-01T07:23:23;8.40;99.90
11035;DHT22;5571;48.110;-1.706;2023-02-01T07:25:52;8.40;99.90
11035;DHT22;5571;48.110;-1.706;2023-02-01T07:28:18;8.40;99.90
11035;DHT22;5571;48.110;-1.706;2023-02-01T07:30:44;8.40;99.90
11035;DHT22;5571;48.110;-1.706;2023-02-01T07:33:22;8.40;99.90
11035;DHT22;5571;48.110;-1.706;2023-02-01T07:35:49;8.40;99.90
11035;DHT22;5571;48.110;-1.706;2023-02-01T07:38:16;8.30;99.90
11035;DHT22;5571;48.110;-1.706;2023-02-01T07:40:42;8.30;99.90
11035;DHT22;5571;48.110;-1.706;2023-02-01T07:43:08;8.30;99.90
11035;DHT22;5571;48.110;-1.706;2023-02-01T07:45:34;8.30;99.90
11035;DHT22;5571;48.110;-1.706;2023-02-01T07:48:00;8.30;99.90
11035;DHT22;5571;48.110;-1.706;2023-02-01T07:50:26;8.30;99.90
11035;DHT22;5571;48.110;-1.706;2023-02-01T07:52:52;8.30;99.90
11035;DHT22;5571;48.110;-1.706;2023-02-01T07:55:19;8.30;99.90
11035;DHT22;5571;48.110;-1.706;2023-02-01T07:57:45;8.30;99.90
11035;DHT22;5571;48.110;-1.706;2023-02-01T08:00:11;8.40;99.90
11035;DHT22;5571;48.110;-1.706;2023-02-01T08:02:59;8.40;99.90
11035;DHT22;5571;48.110;-1.706;2023-02-01T08:05:25;8.40;99.90
11035;DHT22;5571;48.110;-1.706;2023-02-01T08:07:51;8.40;99.90
11035;DHT22;5571;48.110;-1.706;2023-02-01T08:10:17;8.40;99.90
11035;DHT22;5571;48.110;-1.706;2023-02-01T08:12:44;8.40;99.90
11035;DHT22;5571;48.110;-1.706;2023-02-01T08:15:14;8.40;99.90
11035;DHT22;5571;48.110;-1.706;2023-02-01T08:17:45;8.40;99.90
11035;DHT22;5571;48.110;-1.706;2023-02-01T08:20:11;8.40;99.90
11035;DHT22;5571;48.110;-1.706;2023-02-01T08:22:38;8.40;99.90
11035;DHT22;5571;48.110;-1.706;2023-02-01T08:25:05;8.40;99.90
11035;DHT22;5571;48.110;-1.706;2023-02-01T08:27:33;8.40;99.90
11035;DHT22;5571;48.110;-1.706;2023-02-01T08:29:58;8.40;99.90
11035;DHT22;5571;48.110;-1.706;2023-02-01T08:32:25;8.50;99.90
11035;DHT22;5571;48.110;-1.706;2023-02-01T08:34:51;8.50;99.90
11035;DHT22;5571;48.110;-1.706;2023-02-01T08:37:16;8.50;99.90
11035;DHT22;5571;48.110;-1.706;2023-02-01T08:39:42;8.40;99.90
11035;DHT22;5571;48.110;-1.706;2023-02-01T08:42:10;8.40;99.90
11035;DHT22;5571;48.110;-1.706;2023-02-01T08:44:55;8.50;99.90
11035;DHT22;5571;48.110;-1.706;2023-02-01T08:47:21;8.50;99.90
11035;DHT22;5571;48.110;-1.706;2023-02-01T08:49:46;8.50;99.90
11035;DHT22;5571;48.110;-1.706;2023-02-01T08:52:12;8.50;99.90
11035;DHT22;5571;48.110;-1.706;2023-02-01T08:54:37;8.50;99.90
11035;DHT22;5571;48.110;-1.706;2023-02-01T08:57:05;8.50;99.90
11035;DHT22;5571;48.110;-1.706;2023-02-01T08:59:31;8.60;99.90
11035;DHT22;5571;48.110;-1.706;2023-02-01T09:01:56;8.60;99.90
11035;DHT22;5571;48.110;-1.706;2023-02-01T09:04:22;8.70;99.90
11035;DHT22;5571;48.110;-1.706;2023-02-01T09:06:48;8.70;99.90
11035;DHT22;5571;48.110;-1.706;2023-02-01T09:09:13;8.70;99.90
11035;DHT22;5571;48.110;-1.706;2023-02-01T09:11:39;8.80;99.90
11035;DHT22;5571;48.110;-1.706;2023-02-01T09:14:05;8.80;99.90
11035;DHT22;5571;48.110;-1.706;2023-02-01T09:16:31;8.80;99.90
11035;DHT22;5571;48.110;-1.706;2023-02-01T09:18:57;8.80;99.90
11035;DHT22;5571;48.110;-1.706;2023-02-01T09:21:23;8.80;99.90
11035;DHT22;5571;48.110;-1.706;2023-02-01T09:23:51;8.80;99.90
11035;DHT22;5571;48.110;-1.706;2023-02-01T09:26:16;8.80;99.90
11035;DHT22;5571;48.110;-1.706;2023-02-01T09:28:42;8.80;99.90
11035;DHT22;5571;48.110;-1.706;2023-02-01T09:31:07;8.80;99.90
11035;DHT22;5571;48.110;-1.706;2023-02-01T09:33:33;8.90;99.90
11035;DHT22;5571;48.110;-1.706;2023-02-01T09:36:00;8.90;99.90
11035;DHT22;5571;48.110;-1.706;2023-02-01T09:38:27;8.90;99.90
11035;DHT22;5571;48.110;-1.706;2023-02-01T09:40:54;8.80;99.90
11035;DHT22;5571;48.110;-1.706;2023-02-01T09:43:52;8.90;99.90
11035;DHT22;5571;48.110;-1.706;2023-02-01T09:46:24;8.90;99.90
11035;DHT22;5571;48.110;-1.706;2023-02-01T09:48:56;8.90;99.90
11035;DHT22;5571;48.110;-1.706;2023-02-01T09:51:27;8.90;99.90
11035;DHT22;5571;48.110;-1.706;2023-02-01T09:54:04;9.00;99.90
11035;DHT22;5571;48.110;-1.706;2023-02-01T09:56:40;9.00;99.90
11035;DHT22;5571;48.110;-1.706;2023-02-01T10:01:44;9.10;99.90
11035;DHT22;5571;48.110;-1.706;2023-02-01T10:04:13;9.10;99.90
11035;DHT22;5571;48.110;-1.706;2023-02-01T10:28:17;9.50;99.90
11035;DHT22;5571;48.110;-1.706;2023-02-01T10:30:45;9.70;99.90
11035;DHT22;5571;48.110;-1.706;2023-02-01T10:35:45;9.50;99.90
11035;DHT22;5571;48.110;-1.706;2023-02-01T10:38:27;9.50;99.90
11035;DHT22;5571;48.110;-1.706;2023-02-01T10:41:02;9.50;99.90
11035;DHT22;5571;48.110;-1.706;2023-02-01T10:43:29;9.50;99.90
11035;DHT22;5571;48.110;-1.706;2023-02-01T10:45:55;9.50;99.90
11035;DHT22;5571;48.110;-1.706;2023-02-01T10:48:21;9.60;99.90
11035;DHT22;5571;48.110;-1.706;2023-02-01T10:50:54;9.60;99.90
11035;DHT22;5571;48.110;-1.706;2023-02-01T10:53:35;9.60;99.90
11035;DHT22;5571;48.110;-1.706;2023-02-01T10:56:10;9.60;99.90
11035;DHT22;5571;48.110;-1.706;2023-02-01T10:58:42;9.70;99.90
11035;DHT22;5571;48.110;-1.706;2023-02-01T11:01:10;9.70;99.90
11035;DHT22;5571;48.110;-1.706;2023-02-01T11:03:45;9.70;99.90
11035;DHT22;5571;48.110;-1.706;2023-02-01T11:06:27;9.70;99.90
11035;DHT22;5571;48.110;-1.706;2023-02-01T11:08:58;9.70;99.90
11035;DHT22;5571;48.110;-1.706;2023-02-01T11:11:25;9.70;99.90
11035;DHT22;5571;48.110;-1.706;2023-02-01T11:13:55;9.70;99.90
11035;DHT22;5571;48.110;-1.706;2023-02-01T11:16:21;9.70;99.90
11035;DHT22;5571;48.110;-1.706;2023-02-01T11:18:53;9.80;99.90
11035;DHT22;5571;48.110;-1.706;2023-02-01T11:21:20;9.80;99.90
11035;DHT22;5571;48.110;-1.706;2023-02-01T11:23:46;9.80;99.90
11035;DHT22;5571;48.110;-1.706;2023-02-01T11:26:22;9.80;99.90
11035;DHT22;5571;48.110;-1.706;2023-02-01T11:29:12;9.90;99.90
11035;DHT22;5571;48.110;-1.706;2023-02-01T11:31:39;9.90;99.90
11035;DHT22;5571;48.110;-1.706;2023-02-01T11:34:19;9.90;99.90
11035;DHT22;5571;48.110;-1.706;2023-02-01T11:36:47;9.90;99.90
11035;DHT22;5571;48.110;-1.706;2023-02-01T11:39:25;10.00;99.90
11035;DHT22;5571;48.110;-1.706;2023-02-01T11:42:01;10.00;99.90
11035;DHT22;5571;48.110;-1.706;2023-02-01T11:49:43;10.10;99.90
11035;DHT22;5571;48.110;-1.706;2023-02-01T11:54:54;10.10;99.90
11035;DHT22;5571;48.110;-1.706;2023-02-01T12:10:58;10.70;99.90
11035;DHT22;5571;48.110;-1.706;2023-02-01T12:19:29;11.40;99.90
11035;DHT22;5571;48.110;-1.706;2023-02-01T12:25:11;11.40;99.90
11035;DHT22;5571;48.110;-1.706;2023-02-01T12:39:22;10.90;99.90
11035;DHT22;5571;48.110;-1.706;2023-02-01T12:42:04;10.80;99.90
11035;DHT22;5571;48.110;-1.706;2023-02-01T12:44:49;10.60;99.90
11035;DHT22;5571;48.110;-1.706;2023-02-01T12:47:52;10.50;99.90
11035;DHT22;5571;48.110;-1.706;2023-02-01T12:50:44;10.50;99.90
11035;DHT22;5571;48.110;-1.706;2023-02-01T12:53:38;10.60;99.90
11035;DHT22;5571;48.110;-1.706;2023-02-01T12:56:13;10.50;99.90
11035;DHT22;5571;48.110;-1.706;2023-02-01T12:58:49;10.50;99.90
11035;DHT22;5571;48.110;-1.706;2023-02-01T13:03:58;10.50;99.90
11035;DHT22;5571;48.110;-1.706;2023-02-01T13:06:33;10.50;99.90
11035;DHT22;5571;48.110;-1.706;2023-02-01T13:09:15;10.50;99.90
11035;DHT22;5571;48.110;-1.706;2023-02-01T13:11:45;10.50;99.90
11035;DHT22;5571;48.110;-1.706;2023-02-01T13:17:03;10.50;99.90
11035;DHT22;5571;48.110;-1.706;2023-02-01T13:19:57;10.50;99.90
11035;DHT22;5571;48.110;-1.706;2023-02-01T13:27:32;10.60;99.90
11035;DHT22;5571;48.110;-1.706;2023-02-01T13:30:06;10.50;99.90
11035;DHT22;5571;48.110;-1.706;2023-02-01T13:41:34;10.30;99.90
11035;DHT22;5571;48.110;-1.706;2023-02-01T13:44:15;10.30;99.90
11035;DHT22;5571;48.110;-1.706;2023-02-01T13:46:46;10.20;99.90
11035;DHT22;5571;48.110;-1.706;2023-02-01T13:49:20;10.20;99.90
11035;DHT22;5571;48.110;-1.706;2023-02-01T13:51:51;10.20;99.90
11035;DHT22;5571;48.110;-1.706;2023-02-01T13:54:29;10.20;99.90
11035;DHT22;5571;48.110;-1.706;2023-02-01T13:56:56;10.10;99.90
11035;DHT22;5571;48.110;-1.706;2023-02-01T14:07:34;10.10;99.90
11035;DHT22;5571;48.110;-1.706;2023-02-01T14:26:39;9.90;99.90
11035;DHT22;5571;48.110;-1.706;2023-02-01T14:34:23;9.80;99.90
11035;DHT22;5571;48.110;-1.706;2023-02-01T14:36:59;9.90;99.90
11035;DHT22;5571;48.110;-1.706;2023-02-01T14:47:53;10.00;99.90
11035;DHT22;5571;48.110;-1.706;2023-02-01T15:00:58;10.10;99.90
11035;DHT22;5571;48.110;-1.706;2023-02-01T15:06:43;10.10;99.90
11035;DHT22;5571;48.110;-1.706;2023-02-01T15:17:34;10.10;99.90
11035;DHT22;5571;48.110;-1.706;2023-02-01T15:20:02;10.10;99.90
11035;DHT22;5571;48.110;-1.706;2023-02-01T15:22:29;10.20;99.90
11035;DHT22;5571;48.110;-1.706;2023-02-01T15:25:00;10.10;99.90
11035;DHT22;5571;48.110;-1.706;2023-02-01T15:27:27;10.10;99.90
11035;DHT22;5571;48.110;-1.706;2023-02-01T15:29:53;10.10;99.90
11035;DHT22;5571;48.110;-1.706;2023-02-01T15:32:37;10.10;99.90
11035;DHT22;5571;48.110;-1.706;2023-02-01T15:43:29;10.10;99.90
11035;DHT22;5571;48.110;-1.706;2023-02-01T15:46:00;10.10;99.90
11035;DHT22;5571;48.110;-1.706;2023-02-01T15:48:37;10.10;99.90
11035;DHT22;5571;48.110;-1.706;2023-02-01T15:51:04;10.10;99.90
11035;DHT22;5571;48.110;-1.706;2023-02-01T15:53:31;10.10;99.90
11035;DHT22;5571;48.110;-1.706;2023-02-01T15:56:00;10.10;99.90
11035;DHT22;5571;48.110;-1.706;2023-02-01T15:58:27;10.10;99.90
11035;DHT22;5571;48.110;-1.706;2023-02-01T16:00:59;10.10;99.90
11035;DHT22;5571;48.110;-1.706;2023-02-01T16:03:44;10.00;99.90
11035;DHT22;5571;48.110;-1.706;2023-02-01T16:06:30;10.10;99.90
11035;DHT22;5571;48.110;-1.706;2023-02-01T16:13:53;10.00;99.90
11035;DHT22;5571;48.110;-1.706;2023-02-01T16:16:19;10.00;99.90
11035;DHT22;5571;48.110;-1.706;2023-02-01T16:18:44;10.00;99.90
11035;DHT22;5571;48.110;-1.706;2023-02-01T16:21:10;10.00;99.90
11035;DHT22;5571;48.110;-1.706;2023-02-01T16:23:36;10.00;99.90
11035;DHT22;5571;48.110;-1.706;2023-02-01T16:26:03;10.00;99.90
11035;DHT22;5571;48.110;-1.706;2023-02-01T16:28:29;9.90;99.90
11035;DHT22;5571;48.110;-1.706;2023-02-01T16:30:55;9.90;99.90
11035;DHT22;5571;48.110;-1.706;2023-02-01T16:33:22;9.90;99.90
11035;DHT22;5571;48.110;-1.706;2023-02-01T16:35:48;9.90;99.90
11035;DHT22;5571;48.110;-1.706;2023-02-01T16:38:16;9.90;99.90
11035;DHT22;5571;48.110;-1.706;2023-02-01T16:40:44;9.90;99.90
11035;DHT22;5571;48.110;-1.706;2023-02-01T16:43:16;9.90;99.90
11035;DHT22;5571;48.110;-1.706;2023-02-01T16:45:43;9.90;99.90
11035;DHT22;5571;48.110;-1.706;2023-02-01T16:48:24;9.90;99.90
11035;DHT22;5571;48.110;-1.706;2023-02-01T16:50:57;9.80;99.90
11035;DHT22;5571;48.110;-1.706;2023-02-01T16:53:24;9.80;99.90
11035;DHT22;5571;48.110;-1.706;2023-02-01T16:55:50;9.80;99.90
11035;DHT22;5571;48.110;-1.706;2023-02-01T16:58:18;9.80;99.90
11035;DHT22;5571;48.110;-1.706;2023-02-01T17:00:45;9.80;99.90
11035;DHT22;5571;48.110;-1.706;2023-02-01T17:03:11;9.80;99.90
11035;DHT22;5571;48.110;-1.706;2023-02-01T17:05:43;9.70;99.90
11035;DHT22;5571;48.110;-1.706;2023-02-01T17:08:14;9.70;99.90
11035;DHT22;5571;48.110;-1.706;2023-02-01T17:10:41;9.70;99.90
11035;DHT22;5571;48.110;-1.706;2023-02-01T17:13:12;9.70;99.90
11035;DHT22;5571;48.110;-1.706;2023-02-01T17:15:38;9.70;99.90
11035;DHT22;5571;48.110;-1.706;2023-02-01T17:18:05;9.70;99.90
11035;DHT22;5571;48.110;-1.706;2023-02-01T17:20:33;9.70;99.90
11035;DHT22;5571;48.110;-1.706;2023-02-01T17:22:59;9.70;99.90
11035;DHT22;5571;48.110;-1.706;2023-02-01T17:25:26;9.70;99.90
11035;DHT22;5571;48.110;-1.706;2023-02-01T17:27:53;9.70;99.90
11035;DHT22;5571;48.110;-1.706;2023-02-01T17:30:18;9.70;99.90
11035;DHT22;5571;48.110;-1.706;2023-02-01T17:32:44;9.70;99.90
11035;DHT22;5571;48.110;-1.706;2023-02-01T17:35:20;9.70;99.90
11035;DHT22;5571;48.110;-1.706;2023-02-01T17:37:46;9.60;99.90
11035;DHT22;5571;48.110;-1.706;2023-02-01T17:40:12;9.60;99.90
11035;DHT22;5571;48.110;-1.706;2023-02-01T17:42:38;9.60;99.90
11035;DHT22;5571;48.110;-1.706;2023-02-01T17:47:56;9.60;99.90
11035;DHT22;5571;48.110;-1.706;2023-02-01T17:50:25;9.60;99.90
11035;DHT22;5571;48.110;-1.706;2023-02-01T17:52:51;9.60;99.90
11035;DHT22;5571;48.110;-1.706;2023-02-01T17:55:21;9.60;99.90
11035;DHT22;5571;48.110;-1.706;2023-02-01T17:57:48;9.60;99.90
11035;DHT22;5571;48.110;-1.706;2023-02-01T18:00:15;9.60;99.90
11035;DHT22;5571;48.110;-1.706;2023-02-01T18:02:41;9.60;99.90
11035;DHT22;5571;48.110;-1.706;2023-02-01T18:05:24;9.60;99.90
11035;DHT22;5571;48.110;-1.706;2023-02-01T18:07:50;9.60;99.90
11035;DHT22;5571;48.110;-1.706;2023-02-01T18:10:16;9.60;99.90
11035;DHT22;5571;48.110;-1.706;2023-02-01T18:12:42;9.60;99.90
11035;DHT22;5571;48.110;-1.706;2023-02-01T18:15:20;9.50;99.90
11035;DHT22;5571;48.110;-1.706;2023-02-01T18:17:46;9.50;99.90
11035;DHT22;5571;48.110;-1.706;2023-02-01T18:20:14;9.50;99.90
11035;DHT22;5571;48.110;-1.706;2023-02-01T18:22:40;9.60;99.90
11035;DHT22;5571;48.110;-1.706;2023-02-01T18:25:16;9.50;99.90
11035;DHT22;5571;48.110;-1.706;2023-02-01T18:27:43;9.50;99.90
11035;DHT22;5571;48.110;-1.706;2023-02-01T18:30:09;9.50;99.90
11035;DHT22;5571;48.110;-1.706;2023-02-01T18:32:35;9.50;99.90
11035;DHT22;5571;48.110;-1.706;2023-02-01T18:35:01;9.50;99.90
11035;DHT22;5571;48.110;-1.706;2023-02-01T18:37:26;9.50;99.90
11035;DHT22;5571;48.110;-1.706;2023-02-01T18:39:52;9.50;99.90
11035;DHT22;5571;48.110;-1.706;2023-02-01T18:42:18;9.40;99.90
11035;DHT22;5571;48.110;-1.706;2023-02-01T18:44:43;9.50;99.90
11035;DHT22;5571;48.110;-1.706;2023-02-01T18:47:09;9.50;99.90
11035;DHT22;5571;48.110;-1.706;2023-02-01T18:49:35;9.50;99.90
11035;DHT22;5571;48.110;-1.706;2023-02-01T18:52:00;9.50;99.90
11035;DHT22;5571;48.110;-1.706;2023-02-01T18:54:26;9.40;99.90
11035;DHT22;5571;48.110;-1.706;2023-02-01T18:56:52;9.40;99.90
11035;DHT22;5571;48.110;-1.706;2023-02-01T18:59:18;9.40;99.90
11035;DHT22;5571;48.110;-1.706;2023-02-01T19:01:44;9.40;99.90
11035;DHT22;5571;48.110;-1.706;2023-02-01T19:04:09;9.40;99.90
11035;DHT22;5571;48.110;-1.706;2023-02-01T19:06:36;9.40;99.90
11035;DHT22;5571;48.110;-1.706;2023-02-01T19:09:01;9.40;99.90
11035;DHT22;5571;48.110;-1.706;2023-02-01T19:11:27;9.40;99.90
11035;DHT22;5571;48.110;-1.706;2023-02-01T19:13:53;9.40;99.90